Aviation Digital Data Service (ADDS)

Output produced by TAFs form (0417 UTC 23 September 2014)
found at http://aviationweather.gov/adds/tafs/
 
KSAF 222331Z 2300/2324 18010KT P6SM VCSH SCT050 BKN060 
     TEMPO 2301/2303 VRB15G25KT -TSRA OVC040CB 
     FM230300 15008KT P6SM VCSH SCT025 BKN040 OVC100 
     FM230600 VRB05KT P6SM SCT025 BKN050 
     TEMPO 2310/2314 BKN025 
     FM232000 28010KT P6SM SCT040 BKN100